createdAt,value
2023-02-17T00:05:27.547Z,101341.66
2023-02-17T00:11:29.765Z,101336.63
2023-02-17T00:17:32.841Z,101341.25
2023-02-17T00:23:35.272Z,101332.31
2023-02-17T00:29:37.400Z,101325.34
2023-02-17T00:35:41.196Z,101316.50
2023-02-17T00:41:44.901Z,101298.88
2023-02-17T00:47:48.044Z,101294.59
2023-02-17T00:53:52.638Z,101299.34
2023-02-17T00:59:59.260Z,101280.59
2023-02-17T01:06:07.954Z,101272.19
2023-02-17T01:12:12.458Z,101250.13
2023-02-17T01:18:19.378Z,101235.69
2023-02-17T01:24:21.594Z,101236.69
2023-02-17T01:30:24.331Z,101234.56
2023-02-17T01:36:27.407Z,101240.03
2023-02-17T01:42:30.438Z,101236.22
2023-02-17T01:48:41.519Z,101234.66
2023-02-17T01:54:48.942Z,101223.75
2023-02-17T02:00:53.636Z,101229.69
2023-02-17T02:06:56.084Z,101218.16
2023-02-17T02:12:58.238Z,101198.97
2023-02-17T02:19:17.205Z,101187.41
2023-02-17T02:25:45.140Z,101185.94
2023-02-17T02:31:56.245Z,101187.63
2023-02-17T02:38:16.854Z,101181.47
2023-02-17T02:44:21.388Z,101191.41
2023-02-17T02:50:45.835Z,101195.09
2023-02-17T02:57:03.310Z,101200.88
2023-02-17T03:03:28.996Z,101205.00
2023-02-17T03:09:32.172Z,101200.09
2023-02-17T03:15:35.659Z,101202.09
2023-02-17T03:21:43.759Z,101191.06
2023-02-17T03:27:46.018Z,101173.72
2023-02-17T03:33:50.060Z,101168.25
2023-02-17T03:39:52.349Z,101161.31
2023-02-17T03:45:55.114Z,101163.38
2023-02-17T03:51:58.479Z,101152.34
2023-02-17T03:58:00.747Z,101159.34
2023-02-17T04:04:03.775Z,101159.03
2023-02-17T04:10:09.516Z,101158.66
2023-02-17T04:16:13.789Z,101160.03
2023-02-17T04:22:15.887Z,101164.56
2023-02-17T04:28:21.551Z,101177.56
2023-02-17T04:34:23.752Z,101180.97
2023-02-17T04:40:29.427Z,101170.53
2023-02-17T04:46:31.568Z,101165.69
2023-02-17T04:52:34.000Z,101170.41
2023-02-17T04:58:36.512Z,101179.47
2023-02-17T05:18:22.422Z,101220.72
2023-02-17T05:25:10.194Z,101217.63
2023-02-17T05:39:07.002Z,101223.06
2023-02-17T05:46:13.426Z,101217.75
2023-02-17T05:53:16.113Z,101220.28
2023-02-17T06:12:45.996Z,101264.69
2023-02-17T06:31:54.361Z,101285.78
2023-02-17T06:38:12.875Z,101286.03
2023-02-17T06:44:19.027Z,101282.75
2023-02-17T06:50:37.948Z,101295.78
2023-02-17T06:56:48.780Z,101294.13
2023-02-17T07:02:53.051Z,101294.56
2023-02-17T07:08:57.924Z,101298.09
2023-02-17T07:15:06.556Z,101305.03
2023-02-17T07:28:09.179Z,101326.81
2023-02-17T07:35:31.471Z,101321.03
2023-02-17T08:02:28.303Z,101294.03
2023-02-17T08:09:22.753Z,101286.34
2023-02-17T08:15:55.846Z,101289.16
2023-02-17T08:22:13.053Z,101308.56
2023-02-17T08:35:42.410Z,101318.63
2023-02-17T08:55:16.276Z,101327.97
2023-02-17T09:01:26.516Z,101322.16
2023-02-17T09:21:28.109Z,101323.19
2023-02-17T09:42:17.503Z,101358.06
2023-02-17T09:48:55.770Z,101356.41
2023-02-17T10:10:01.467Z,101340.50
2023-02-17T10:30:17.243Z,101312.25
2023-02-17T10:51:32.977Z,101322.88
2023-02-17T11:12:58.404Z,101284.25
2023-02-17T11:20:10.864Z,101287.06
2023-02-17T11:54:54.369Z,101254.13
2023-02-17T12:01:56.925Z,101240.75
2023-02-17T12:08:58.729Z,101236.03
2023-02-17T12:22:33.736Z,101236.13
2023-02-17T12:37:10.985Z,101241.16
2023-02-17T12:43:53.291Z,101247.25
2023-02-17T13:05:18.823Z,101240.16
2023-02-17T13:11:53.629Z,101247.44
2023-02-17T13:25:35.687Z,101236.50
2023-02-17T13:32:29.344Z,101232.22
2023-02-17T13:39:53.428Z,101238.78
2023-02-17T13:46:13.724Z,101223.94
2023-02-17T13:52:45.288Z,101212.31
2023-02-17T13:59:01.244Z,101221.38
2023-02-17T14:05:46.328Z,101216.59
2023-02-17T14:11:56.701Z,101206.09
2023-02-17T14:18:18.423Z,101186.84
2023-02-17T14:24:47.282Z,101189.25
2023-02-17T14:31:01.208Z,101174.72
2023-02-17T14:43:58.351Z,101177.75
2023-02-17T14:50:38.986Z,101178.84
2023-02-17T15:04:42.549Z,101183.03
2023-02-17T15:11:35.105Z,101175.38
2023-02-17T15:17:52.580Z,101178.66
2023-02-17T15:24:40.118Z,101175.13
2023-02-17T15:31:35.741Z,101176.28
2023-02-17T15:37:44.324Z,101175.25
2023-02-17T16:24:17.149Z,101174.00
2023-02-17T16:43:45.077Z,101175.31
2023-02-17T16:49:54.183Z,101178.81
2023-02-17T16:56:22.472Z,101180.84
2023-02-17T17:02:35.744Z,101183.91
2023-02-17T17:15:12.638Z,101178.91
2023-02-17T17:21:30.786Z,101189.22
2023-02-17T17:27:49.544Z,101199.19
2023-02-17T17:34:04.592Z,101194.78
2023-02-17T17:41:00.419Z,101198.56
2023-02-17T17:54:20.949Z,101199.75
2023-02-17T18:00:46.547Z,101193.78
2023-02-17T18:13:44.630Z,101197.63
2023-02-17T18:20:31.330Z,101195.75
2023-02-17T18:33:30.067Z,101180.44
2023-02-17T18:53:46.973Z,101180.50
2023-02-17T19:00:11.257Z,101172.63
2023-02-17T19:06:29.364Z,101176.56
2023-02-17T19:12:50.653Z,101180.63
2023-02-17T19:19:48.470Z,101168.47
2023-02-17T19:26:35.906Z,101173.97
2023-02-17T19:33:03.906Z,101178.22
2023-02-17T19:40:08.594Z,101160.63
2023-02-17T20:00:08.417Z,101150.44
2023-02-17T20:13:08.840Z,101132.56
2023-02-17T20:19:29.496Z,101136.78
2023-02-17T20:26:16.712Z,101129.69
2023-02-17T20:32:46.345Z,101120.72
2023-02-17T20:38:53.186Z,101122.56
2023-02-17T20:45:36.947Z,101112.56
2023-02-17T20:52:03.402Z,101100.97
2023-02-17T20:58:35.261Z,101096.75
2023-02-17T21:04:43.160Z,101091.78
2023-02-17T21:11:04.562Z,101075.16
2023-02-17T21:17:15.666Z,101083.59
2023-02-17T21:23:53.061Z,101075.16
2023-02-17T21:30:31.138Z,101080.41
2023-02-17T21:36:46.596Z,101068.88
2023-02-17T21:43:20.198Z,101073.09
2023-02-17T21:49:39.657Z,101075.72
2023-02-17T21:56:24.498Z,101058.59
2023-02-17T22:03:01.024Z,101060.97
2023-02-17T22:09:38.011Z,101063.63
2023-02-17T22:16:05.737Z,101063.97
2023-02-17T22:22:25.622Z,101068.00
2023-02-17T22:28:58.720Z,101048.78
2023-02-17T22:35:18.242Z,101061.72
2023-02-17T22:41:30.028Z,101045.63
2023-02-17T23:06:47.239Z,101021.00
2023-02-17T23:19:16.769Z,101018.75
2023-02-17T23:25:34.919Z,101010.34
2023-02-17T23:44:59.101Z,100987.41
2023-02-17T23:51:07.736Z,100968.75
2023-02-17T23:57:13.774Z,100946.41
